sensor_id;sensor_type;location;lat;lon;timestamp;P1;durP1;ratioP1;P2;durP2;ratioP2
42364;SDS011;28498;54.400;18.566;2024-03-06T00:00:32;47.88;;;21.80;;
42364;SDS011;28498;54.400;18.566;2024-03-06T00:03:00;43.22;;;21.10;;
42364;SDS011;28498;54.400;18.566;2024-03-06T00:05:27;43.60;;;20.58;;
42364;SDS011;28498;54.400;18.566;2024-03-06T00:07:54;41.95;;;20.77;;
42364;SDS011;28498;54.400;18.566;2024-03-06T00:10:22;43.00;;;22.70;;
42364;SDS011;28498;54.400;18.566;2024-03-06T00:12:49;47.13;;;22.00;;
42364;SDS011;28498;54.400;18.566;2024-03-06T00:15:16;42.50;;;20.65;;
42364;SDS011;28498;54.400;18.566;2024-03-06T00:17:44;45.90;;;21.88;;
42364;SDS011;28498;54.400;18.566;2024-03-06T00:20:11;41.72;;;21.45;;
42364;SDS011;28498;54.400;18.566;2024-03-06T00:22:38;43.08;;;20.35;;
42364;SDS011;28498;54.400;18.566;2024-03-06T00:25:06;42.25;;;20.77;;
42364;SDS011;28498;54.400;18.566;2024-03-06T00:27:35;40.85;;;20.88;;
42364;SDS011;28498;54.400;18.566;2024-03-06T00:30:02;39.47;;;21.35;;
42364;SDS011;28498;54.400;18.566;2024-03-06T00:32:29;40.33;;;19.20;;
42364;SDS011;28498;54.400;18.566;2024-03-06T00:34:56;37.00;;;16.80;;
42364;SDS011;28498;54.400;18.566;2024-03-06T00:37:24;36.45;;;17.33;;
42364;SDS011;28498;54.400;18.566;2024-03-06T00:39:51;34.92;;;17.42;;
42364;SDS011;28498;54.400;18.566;2024-03-06T00:42:19;35.45;;;18.48;;
42364;SDS011;28498;54.400;18.566;2024-03-06T00:44:46;32.45;;;16.15;;
42364;SDS011;28498;54.400;18.566;2024-03-06T00:47:13;35.00;;;16.75;;
42364;SDS011;28498;54.400;18.566;2024-03-06T00:49:41;32.30;;;17.10;;
42364;SDS011;28498;54.400;18.566;2024-03-06T00:52:08;31.58;;;16.63;;
42364;SDS011;28498;54.400;18.566;2024-03-06T00:54:36;33.38;;;16.52;;
42364;SDS011;28498;54.400;18.566;2024-03-06T00:57:03;35.58;;;16.90;;
42364;SDS011;28498;54.400;18.566;2024-03-06T00:59:30;30.10;;;15.13;;
42364;SDS011;28498;54.400;18.566;2024-03-06T01:01:58;36.00;;;16.25;;
42364;SDS011;28498;54.400;18.566;2024-03-06T01:04:25;33.60;;;16.23;;
42364;SDS011;28498;54.400;18.566;2024-03-06T01:06:52;27.73;;;14.82;;
42364;SDS011;28498;54.400;18.566;2024-03-06T01:09:19;31.25;;;15.38;;
42364;SDS011;28498;54.400;18.566;2024-03-06T01:11:46;25.48;;;13.32;;
42364;SDS011;28498;54.400;18.566;2024-03-06T01:14:15;22.00;;;12.88;;
42364;SDS011;28498;54.400;18.566;2024-03-06T01:16:43;28.52;;;13.45;;
42364;SDS011;28498;54.400;18.566;2024-03-06T01:19:10;25.23;;;13.43;;
42364;SDS011;28498;54.400;18.566;2024-03-06T01:21:38;32.88;;;15.60;;
42364;SDS011;28498;54.400;18.566;2024-03-06T01:24:05;27.70;;;12.73;;
42364;SDS011;28498;54.400;18.566;2024-03-06T01:26:32;28.70;;;13.55;;
42364;SDS011;28498;54.400;18.566;2024-03-06T01:28:59;25.85;;;13.55;;
42364;SDS011;28498;54.400;18.566;2024-03-06T01:31:26;24.33;;;13.07;;
42364;SDS011;28498;54.400;18.566;2024-03-06T01:33:53;28.55;;;13.70;;
42364;SDS011;28498;54.400;18.566;2024-03-06T01:36:21;22.42;;;12.45;;
42364;SDS011;28498;54.400;18.566;2024-03-06T01:38:48;26.23;;;11.95;;
42364;SDS011;28498;54.400;18.566;2024-03-06T01:41:15;20.33;;;10.98;;
42364;SDS011;28498;54.400;18.566;2024-03-06T01:43:42;27.50;;;13.15;;
42364;SDS011;28498;54.400;18.566;2024-03-06T01:46:09;25.35;;;11.85;;
42364;SDS011;28498;54.400;18.566;2024-03-06T01:48:37;26.35;;;12.75;;
42364;SDS011;28498;54.400;18.566;2024-03-06T01:51:05;21.23;;;10.88;;
42364;SDS011;28498;54.400;18.566;2024-03-06T01:53:32;28.48;;;10.68;;
42364;SDS011;28498;54.400;18.566;2024-03-06T01:56:03;23.30;;;12.07;;
42364;SDS011;28498;54.400;18.566;2024-03-06T01:58:31;22.42;;;11.30;;
42364;SDS011;28498;54.400;18.566;2024-03-06T02:01:00;22.77;;;11.55;;
42364;SDS011;28498;54.400;18.566;2024-03-06T02:03:28;21.40;;;10.27;;
42364;SDS011;28498;54.400;18.566;2024-03-06T02:05:58;23.40;;;11.43;;
42364;SDS011;28498;54.400;18.566;2024-03-06T02:08:26;23.70;;;12.05;;
42364;SDS011;28498;54.400;18.566;2024-03-06T02:10:54;28.17;;;15.30;;
42364;SDS011;28498;54.400;18.566;2024-03-06T02:13:21;26.83;;;12.43;;
42364;SDS011;28498;54.400;18.566;2024-03-06T02:15:49;20.58;;;11.63;;
42364;SDS011;28498;54.400;18.566;2024-03-06T02:18:16;28.42;;;14.07;;
42364;SDS011;28498;54.400;18.566;2024-03-06T02:20:43;27.08;;;12.88;;
42364;SDS011;28498;54.400;18.566;2024-03-06T02:23:12;29.58;;;11.80;;
42364;SDS011;28498;54.400;18.566;2024-03-06T02:25:41;22.90;;;11.25;;
42364;SDS011;28498;54.400;18.566;2024-03-06T02:28:08;22.60;;;11.88;;
42364;SDS011;28498;54.400;18.566;2024-03-06T02:30:36;24.15;;;11.27;;
42364;SDS011;28498;54.400;18.566;2024-03-06T02:33:04;26.73;;;11.35;;
42364;SDS011;28498;54.400;18.566;2024-03-06T02:35:33;22.75;;;11.88;;
42364;SDS011;28498;54.400;18.566;2024-03-06T02:38:03;27.45;;;12.55;;
42364;SDS011;28498;54.400;18.566;2024-03-06T02:40:31;26.65;;;11.55;;
42364;SDS011;28498;54.400;18.566;2024-03-06T02:42:59;20.45;;;10.63;;
42364;SDS011;28498;54.400;18.566;2024-03-06T02:45:26;23.60;;;12.52;;
42364;SDS011;28498;54.400;18.566;2024-03-06T02:47:54;36.08;;;16.23;;
42364;SDS011;28498;54.400;18.566;2024-03-06T02:50:21;27.77;;;12.70;;
42364;SDS011;28498;54.400;18.566;2024-03-06T02:52:50;36.10;;;14.90;;
42364;SDS011;28498;54.400;18.566;2024-03-06T02:55:18;31.50;;;12.38;;
42364;SDS011;28498;54.400;18.566;2024-03-06T02:57:46;26.45;;;11.90;;
42364;SDS011;28498;54.400;18.566;2024-03-06T03:00:13;28.73;;;13.60;;
42364;SDS011;28498;54.400;18.566;2024-03-06T03:02:42;22.30;;;11.43;;
42364;SDS011;28498;54.400;18.566;2024-03-06T03:05:10;26.60;;;12.18;;
42364;SDS011;28498;54.400;18.566;2024-03-06T03:07:37;21.20;;;10.02;;
42364;SDS011;28498;54.400;18.566;2024-03-06T03:10:05;19.67;;;9.85;;
42364;SDS011;28498;54.400;18.566;2024-03-06T03:12:32;24.08;;;11.23;;
42364;SDS011;28498;54.400;18.566;2024-03-06T03:15:00;32.08;;;12.45;;
42364;SDS011;28498;54.400;18.566;2024-03-06T03:17:28;18.08;;;9.35;;
42364;SDS011;28498;54.400;18.566;2024-03-06T03:19:55;46.30;;;19.98;;
42364;SDS011;28498;54.400;18.566;2024-03-06T03:22:22;24.10;;;11.77;;
42364;SDS011;28498;54.400;18.566;2024-03-06T03:24:49;22.75;;;10.90;;
42364;SDS011;28498;54.400;18.566;2024-03-06T03:27:17;19.10;;;9.00;;
42364;SDS011;28498;54.400;18.566;2024-03-06T03:29:44;20.05;;;10.07;;
42364;SDS011;28498;54.400;18.566;2024-03-06T03:32:11;17.42;;;9.23;;
42364;SDS011;28498;54.400;18.566;2024-03-06T03:34:39;23.90;;;11.88;;
42364;SDS011;28498;54.400;18.566;2024-03-06T03:37:06;29.30;;;12.48;;
42364;SDS011;28498;54.400;18.566;2024-03-06T03:39:33;19.75;;;10.32;;
42364;SDS011;28498;54.400;18.566;2024-03-06T03:42:01;18.52;;;9.70;;
42364;SDS011;28498;54.400;18.566;2024-03-06T03:44:28;18.25;;;10.18;;
42364;SDS011;28498;54.400;18.566;2024-03-06T03:46:55;17.77;;;8.63;;
42364;SDS011;28498;54.400;18.566;2024-03-06T03:49:23;19.50;;;11.38;;
42364;SDS011;28498;54.400;18.566;2024-03-06T03:51:50;21.58;;;10.73;;
42364;SDS011;28498;54.400;18.566;2024-03-06T03:54:18;21.42;;;10.90;;
42364;SDS011;28498;54.400;18.566;2024-03-06T03:56:45;21.33;;;10.27;;
42364;SDS011;28498;54.400;18.566;2024-03-06T03:59:12;23.90;;;10.88;;
42364;SDS011;28498;54.400;18.566;2024-03-06T04:01:40;23.90;;;10.63;;
42364;SDS011;28498;54.400;18.566;2024-03-06T04:04:07;16.75;;;9.55;;
42364;SDS011;28498;54.400;18.566;2024-03-06T04:06:34;19.15;;;9.90;;
42364;SDS011;28498;54.400;18.566;2024-03-06T04:09:01;18.85;;;10.30;;
42364;SDS011;28498;54.400;18.566;2024-03-06T04:11:29;22.10;;;11.00;;
42364;SDS011;28498;54.400;18.566;2024-03-06T04:13:56;44.33;;;20.50;;
42364;SDS011;28498;54.400;18.566;2024-03-06T04:16:24;17.05;;;10.20;;
42364;SDS011;28498;54.400;18.566;2024-03-06T04:18:51;36.70;;;15.15;;
42364;SDS011;28498;54.400;18.566;2024-03-06T04:21:18;21.38;;;11.23;;
42364;SDS011;28498;54.400;18.566;2024-03-06T04:23:45;21.65;;;10.00;;
42364;SDS011;28498;54.400;18.566;2024-03-06T04:26:13;27.08;;;12.52;;
42364;SDS011;28498;54.400;18.566;2024-03-06T04:28:40;19.38;;;9.20;;
42364;SDS011;28498;54.400;18.566;2024-03-06T04:31:07;17.00;;;10.35;;
42364;SDS011;28498;54.400;18.566;2024-03-06T04:33:35;21.13;;;10.13;;
42364;SDS011;28498;54.400;18.566;2024-03-06T04:36:03;22.25;;;11.70;;
42364;SDS011;28498;54.400;18.566;2024-03-06T04:38:33;32.70;;;13.82;;
42364;SDS011;28498;54.400;18.566;2024-03-06T04:41:01;27.00;;;12.68;;
42364;SDS011;28498;54.400;18.566;2024-03-06T04:43:28;50.70;;;19.63;;
42364;SDS011;28498;54.400;18.566;2024-03-06T04:45:55;19.73;;;9.52;;
42364;SDS011;28498;54.400;18.566;2024-03-06T04:48:22;19.23;;;8.68;;
42364;SDS011;28498;54.400;18.566;2024-03-06T04:50:49;20.70;;;10.10;;
42364;SDS011;28498;54.400;18.566;2024-03-06T04:53:17;20.20;;;9.48;;
42364;SDS011;28498;54.400;18.566;2024-03-06T04:55:44;27.45;;;12.40;;
42364;SDS011;28498;54.400;18.566;2024-03-06T04:58:12;27.42;;;13.05;;
42364;SDS011;28498;54.400;18.566;2024-03-06T05:00:39;19.13;;;8.68;;
42364;SDS011;28498;54.400;18.566;2024-03-06T05:03:07;19.67;;;10.85;;
42364;SDS011;28498;54.400;18.566;2024-03-06T05:05:51;20.55;;;9.15;;
42364;SDS011;28498;54.400;18.566;2024-03-06T05:08:36;21.90;;;11.07;;
42364;SDS011;28498;54.400;18.566;2024-03-06T05:11:21;23.05;;;10.70;;
42364;SDS011;28498;54.400;18.566;2024-03-06T05:14:06;18.40;;;8.85;;
42364;SDS011;28498;54.400;18.566;2024-03-06T05:16:50;15.98;;;8.95;;
42364;SDS011;28498;54.400;18.566;2024-03-06T05:19:35;15.30;;;8.85;;
42364;SDS011;28498;54.400;18.566;2024-03-06T05:22:20;25.25;;;11.68;;
42364;SDS011;28498;54.400;18.566;2024-03-06T05:25:05;22.08;;;10.75;;
42364;SDS011;28498;54.400;18.566;2024-03-06T05:27:49;23.75;;;10.70;;
42364;SDS011;28498;54.400;18.566;2024-03-06T05:30:34;16.98;;;9.15;;
42364;SDS011;28498;54.400;18.566;2024-03-06T05:33:19;26.20;;;10.77;;
42364;SDS011;28498;54.400;18.566;2024-03-06T05:36:03;19.50;;;9.40;;
42364;SDS011;28498;54.400;18.566;2024-03-06T05:38:49;19.63;;;9.32;;
42364;SDS011;28498;54.400;18.566;2024-03-06T05:41:33;17.85;;;9.60;;
42364;SDS011;28498;54.400;18.566;2024-03-06T05:44:17;34.10;;;15.77;;
42364;SDS011;28498;54.400;18.566;2024-03-06T05:47:02;33.17;;;15.27;;
42364;SDS011;28498;54.400;18.566;2024-03-06T05:49:47;27.13;;;11.77;;
42364;SDS011;28498;54.400;18.566;2024-03-06T05:52:31;30.27;;;13.57;;
42364;SDS011;28498;54.400;18.566;2024-03-06T05:55:16;19.23;;;8.43;;
42364;SDS011;28498;54.400;18.566;2024-03-06T05:58:01;18.38;;;8.05;;
42364;SDS011;28498;54.400;18.566;2024-03-06T06:00:37;29.40;;;13.27;;
42364;SDS011;28498;54.400;18.566;2024-03-06T06:03:07;21.45;;;10.00;;
42364;SDS011;28498;54.400;18.566;2024-03-06T06:05:34;25.63;;;11.50;;
42364;SDS011;28498;54.400;18.566;2024-03-06T06:08:03;37.85;;;16.13;;
42364;SDS011;28498;54.400;18.566;2024-03-06T06:10:31;28.77;;;14.05;;
42364;SDS011;28498;54.400;18.566;2024-03-06T06:12:58;24.67;;;10.85;;
42364;SDS011;28498;54.400;18.566;2024-03-06T06:15:26;25.77;;;10.63;;
42364;SDS011;28498;54.400;18.566;2024-03-06T06:17:53;18.52;;;9.38;;
42364;SDS011;28498;54.400;18.566;2024-03-06T06:20:20;26.08;;;11.32;;
42364;SDS011;28498;54.400;18.566;2024-03-06T06:22:48;26.88;;;10.55;;
42364;SDS011;28498;54.400;18.566;2024-03-06T06:25:15;15.85;;;8.57;;
42364;SDS011;28498;54.400;18.566;2024-03-06T06:27:42;38.78;;;15.88;;
42364;SDS011;28498;54.400;18.566;2024-03-06T06:30:09;17.10;;;9.05;;
42364;SDS011;28498;54.400;18.566;2024-03-06T06:32:39;16.58;;;8.52;;
42364;SDS011;28498;54.400;18.566;2024-03-06T06:35:08;15.23;;;7.55;;
42364;SDS011;28498;54.400;18.566;2024-03-06T06:37:38;13.48;;;8.20;;
42364;SDS011;28498;54.400;18.566;2024-03-06T06:40:06;14.60;;;7.13;;
42364;SDS011;28498;54.400;18.566;2024-03-06T06:42:34;17.33;;;7.68;;
42364;SDS011;28498;54.400;18.566;2024-03-06T06:45:03;13.40;;;7.30;;
42364;SDS011;28498;54.400;18.566;2024-03-06T06:47:33;14.07;;;7.10;;
42364;SDS011;28498;54.400;18.566;2024-03-06T06:50:01;18.77;;;9.35;;
42364;SDS011;28498;54.400;18.566;2024-03-06T06:52:32;16.02;;;7.97;;
42364;SDS011;28498;54.400;18.566;2024-03-06T06:55:01;15.73;;;7.43;;
42364;SDS011;28498;54.400;18.566;2024-03-06T06:57:29;19.38;;;8.40;;
42364;SDS011;28498;54.400;18.566;2024-03-06T06:59:57;16.95;;;8.07;;
42364;SDS011;28498;54.400;18.566;2024-03-06T07:02:24;16.85;;;8.18;;
42364;SDS011;28498;54.400;18.566;2024-03-06T07:04:51;16.98;;;7.28;;
42364;SDS011;28498;54.400;18.566;2024-03-06T07:07:19;14.40;;;6.80;;
42364;SDS011;28498;54.400;18.566;2024-03-06T07:09:46;16.17;;;7.85;;
42364;SDS011;28498;54.400;18.566;2024-03-06T07:12:13;15.48;;;7.03;;
42364;SDS011;28498;54.400;18.566;2024-03-06T07:14:40;16.40;;;7.93;;
42364;SDS011;28498;54.400;18.566;2024-03-06T07:17:07;14.10;;;7.55;;
42364;SDS011;28498;54.400;18.566;2024-03-06T07:19:36;15.48;;;7.85;;
42364;SDS011;28498;54.400;18.566;2024-03-06T07:22:03;16.15;;;7.15;;
42364;SDS011;28498;54.400;18.566;2024-03-06T07:24:30;13.88;;;7.05;;
42364;SDS011;28498;54.400;18.566;2024-03-06T07:26:57;16.30;;;8.45;;
42364;SDS011;28498;54.400;18.566;2024-03-06T07:29:24;15.65;;;7.22;;
42364;SDS011;28498;54.400;18.566;2024-03-06T07:31:51;14.25;;;7.72;;
42364;SDS011;28498;54.400;18.566;2024-03-06T07:34:20;15.43;;;8.07;;
42364;SDS011;28498;54.400;18.566;2024-03-06T07:36:48;15.40;;;7.35;;
42364;SDS011;28498;54.400;18.566;2024-03-06T07:39:15;15.70;;;6.75;;
42364;SDS011;28498;54.400;18.566;2024-03-06T07:41:42;14.80;;;6.97;;
42364;SDS011;28498;54.400;18.566;2024-03-06T07:44:09;15.23;;;7.45;;
42364;SDS011;28498;54.400;18.566;2024-03-06T07:46:38;15.13;;;6.93;;
42364;SDS011;28498;54.400;18.566;2024-03-06T07:49:05;16.73;;;6.72;;
42364;SDS011;28498;54.400;18.566;2024-03-06T07:51:32;12.05;;;6.75;;
42364;SDS011;28498;54.400;18.566;2024-03-06T07:53:59;13.63;;;7.60;;
42364;SDS011;28498;54.400;18.566;2024-03-06T07:56:27;14.38;;;7.53;;
42364;SDS011;28498;54.400;18.566;2024-03-06T07:58:55;16.70;;;7.88;;
42364;SDS011;28498;54.400;18.566;2024-03-06T08:01:22;13.77;;;6.13;;
42364;SDS011;28498;54.400;18.566;2024-03-06T08:03:50;14.85;;;7.30;;
42364;SDS011;28498;54.400;18.566;2024-03-06T08:06:18;17.17;;;7.10;;
42364;SDS011;28498;54.400;18.566;2024-03-06T08:08:45;11.60;;;6.43;;
42364;SDS011;28498;54.400;18.566;2024-03-06T08:11:15;11.73;;;6.65;;
42364;SDS011;28498;54.400;18.566;2024-03-06T08:13:43;12.88;;;6.90;;
42364;SDS011;28498;54.400;18.566;2024-03-06T08:16:10;13.38;;;6.72;;
42364;SDS011;28498;54.400;18.566;2024-03-06T08:18:37;13.98;;;7.05;;
42364;SDS011;28498;54.400;18.566;2024-03-06T08:21:04;13.57;;;6.95;;
42364;SDS011;28498;54.400;18.566;2024-03-06T08:23:32;13.95;;;6.03;;
42364;SDS011;28498;54.400;18.566;2024-03-06T08:26:00;13.82;;;7.00;;
42364;SDS011;28498;54.400;18.566;2024-03-06T08:28:27;13.52;;;6.55;;
42364;SDS011;28498;54.400;18.566;2024-03-06T08:30:54;16.52;;;7.30;;
42364;SDS011;28498;54.400;18.566;2024-03-06T08:33:21;12.75;;;7.10;;
42364;SDS011;28498;54.400;18.566;2024-03-06T08:35:49;12.43;;;6.70;;
42364;SDS011;28498;54.400;18.566;2024-03-06T08:38:17;13.68;;;7.53;;
42364;SDS011;28498;54.400;18.566;2024-03-06T08:40:44;15.77;;;6.93;;
42364;SDS011;28498;54.400;18.566;2024-03-06T08:43:15;14.23;;;6.80;;
42364;SDS011;28498;54.400;18.566;2024-03-06T08:45:42;17.27;;;6.35;;
42364;SDS011;28498;54.400;18.566;2024-03-06T08:48:09;12.02;;;7.10;;
42364;SDS011;28498;54.400;18.566;2024-03-06T08:50:38;11.02;;;5.88;;
42364;SDS011;28498;54.400;18.566;2024-03-06T08:53:06;14.43;;;6.85;;
42364;SDS011;28498;54.400;18.566;2024-03-06T08:55:33;12.63;;;7.13;;
42364;SDS011;28498;54.400;18.566;2024-03-06T08:58:01;17.02;;;7.47;;
42364;SDS011;28498;54.400;18.566;2024-03-06T09:00:28;15.05;;;7.15;;
42364;SDS011;28498;54.400;18.566;2024-03-06T09:02:58;15.48;;;7.43;;
42364;SDS011;28498;54.400;18.566;2024-03-06T09:05:26;15.13;;;7.50;;
42364;SDS011;28498;54.400;18.566;2024-03-06T09:07:53;14.40;;;6.25;;
42364;SDS011;28498;54.400;18.566;2024-03-06T09:10:20;14.40;;;6.57;;
42364;SDS011;28498;54.400;18.566;2024-03-06T09:12:47;15.32;;;7.22;;
42364;SDS011;28498;54.400;18.566;2024-03-06T09:15:14;14.32;;;6.90;;
42364;SDS011;28498;54.400;18.566;2024-03-06T09:17:42;14.45;;;6.40;;
42364;SDS011;28498;54.400;18.566;2024-03-06T09:20:11;15.77;;;6.85;;
42364;SDS011;28498;54.400;18.566;2024-03-06T09:22:40;13.57;;;7.40;;
42364;SDS011;28498;54.400;18.566;2024-03-06T09:25:09;16.42;;;7.10;;
42364;SDS011;28498;54.400;18.566;2024-03-06T09:27:37;16.02;;;7.75;;
42364;SDS011;28498;54.400;18.566;2024-03-06T09:30:04;13.13;;;7.35;;
42364;SDS011;28498;54.400;18.566;2024-03-06T09:32:31;11.73;;;6.55;;
42364;SDS011;28498;54.400;18.566;2024-03-06T09:34:59;12.68;;;6.80;;
42364;SDS011;28498;54.400;18.566;2024-03-06T09:37:27;12.02;;;6.47;;
42364;SDS011;28498;54.400;18.566;2024-03-06T09:39:55;14.55;;;7.35;;
42364;SDS011;28498;54.400;18.566;2024-03-06T09:42:23;14.27;;;7.32;;
42364;SDS011;28498;54.400;18.566;2024-03-06T09:44:50;16.13;;;7.38;;
42364;SDS011;28498;54.400;18.566;2024-03-06T09:47:19;12.98;;;6.50;;
42364;SDS011;28498;54.400;18.566;2024-03-06T09:49:52;15.60;;;7.65;;
42364;SDS011;28498;54.400;18.566;2024-03-06T09:52:23;16.55;;;7.45;;
42364;SDS011;28498;54.400;18.566;2024-03-06T09:54:54;14.13;;;6.85;;
42364;SDS011;28498;54.400;18.566;2024-03-06T09:57:22;15.30;;;6.82;;
42364;SDS011;28498;54.400;18.566;2024-03-06T09:59:50;12.93;;;6.50;;
42364;SDS011;28498;54.400;18.566;2024-03-06T10:02:19;12.68;;;6.25;;
42364;SDS011;28498;54.400;18.566;2024-03-06T10:05:04;15.75;;;7.03;;
42364;SDS011;28498;54.400;18.566;2024-03-06T10:07:32;12.30;;;7.07;;
42364;SDS011;28498;54.400;18.566;2024-03-06T10:09:59;13.70;;;6.88;;
42364;SDS011;28498;54.400;18.566;2024-03-06T10:12:27;13.00;;;6.35;;
42364;SDS011;28498;54.400;18.566;2024-03-06T10:14:56;12.88;;;6.55;;
42364;SDS011;28498;54.400;18.566;2024-03-06T10:17:23;15.85;;;7.80;;
42364;SDS011;28498;54.400;18.566;2024-03-06T10:19:54;14.05;;;7.25;;
42364;SDS011;28498;54.400;18.566;2024-03-06T10:22:22;15.73;;;7.53;;
42364;SDS011;28498;54.400;18.566;2024-03-06T10:24:55;13.70;;;6.95;;
42364;SDS011;28498;54.400;18.566;2024-03-06T10:27:23;13.98;;;7.07;;
42364;SDS011;28498;54.400;18.566;2024-03-06T10:30:03;13.43;;;6.93;;
42364;SDS011;28498;54.400;18.566;2024-03-06T10:32:32;13.95;;;6.65;;
42364;SDS011;28498;54.400;18.566;2024-03-06T10:34:59;12.55;;;6.07;;
42364;SDS011;28498;54.400;18.566;2024-03-06T10:37:27;12.30;;;6.53;;
42364;SDS011;28498;54.400;18.566;2024-03-06T10:39:55;11.65;;;6.32;;
42364;SDS011;28498;54.400;18.566;2024-03-06T10:42:26;12.48;;;6.45;;
42364;SDS011;28498;54.400;18.566;2024-03-06T10:44:55;13.68;;;7.10;;
42364;SDS011;28498;54.400;18.566;2024-03-06T10:47:27;14.18;;;6.60;;
42364;SDS011;28498;54.400;18.566;2024-03-06T10:49:55;13.27;;;7.15;;
42364;SDS011;28498;54.400;18.566;2024-03-06T10:52:28;14.70;;;7.35;;
42364;SDS011;28498;54.400;18.566;2024-03-06T10:54:59;14.10;;;7.18;;
42364;SDS011;28498;54.400;18.566;2024-03-06T10:57:28;14.77;;;6.70;;
42364;SDS011;28498;54.400;18.566;2024-03-06T10:59:56;12.10;;;5.88;;
42364;SDS011;28498;54.400;18.566;2024-03-06T11:02:30;15.15;;;6.55;;
42364;SDS011;28498;54.400;18.566;2024-03-06T11:04:58;12.13;;;6.70;;
42364;SDS011;28498;54.400;18.566;2024-03-06T11:07:26;13.05;;;6.43;;
42364;SDS011;28498;54.400;18.566;2024-03-06T11:09:54;17.95;;;8.02;;
42364;SDS011;28498;54.400;18.566;2024-03-06T11:12:36;13.32;;;7.20;;
42364;SDS011;28498;54.400;18.566;2024-03-06T11:15:15;18.42;;;8.07;;
42364;SDS011;28498;54.400;18.566;2024-03-06T11:17:45;13.70;;;7.30;;
42364;SDS011;28498;54.400;18.566;2024-03-06T11:20:17;15.95;;;7.07;;
42364;SDS011;28498;54.400;18.566;2024-03-06T11:28:31;15.43;;;7.97;;
42364;SDS011;28498;54.400;18.566;2024-03-06T11:33:40;12.02;;;6.65;;
42364;SDS011;28498;54.400;18.566;2024-03-06T11:36:22;14.93;;;7.57;;
42364;SDS011;28498;54.400;18.566;2024-03-06T11:41:23;17.90;;;6.90;;
42364;SDS011;28498;54.400;18.566;2024-03-06T11:43:52;14.65;;;7.55;;
42364;SDS011;28498;54.400;18.566;2024-03-06T11:46:20;15.40;;;6.90;;
42364;SDS011;28498;54.400;18.566;2024-03-06T11:51:47;16.92;;;7.57;;
42364;SDS011;28498;54.400;18.566;2024-03-06T11:54:15;12.65;;;7.50;;
42364;SDS011;28498;54.400;18.566;2024-03-06T11:56:45;16.42;;;7.93;;
42364;SDS011;28498;54.400;18.566;2024-03-06T11:59:13;14.88;;;7.30;;
42364;SDS011;28498;54.400;18.566;2024-03-06T12:01:41;15.32;;;8.10;;
42364;SDS011;28498;54.400;18.566;2024-03-06T12:04:08;16.75;;;9.05;;
42364;SDS011;28498;54.400;18.566;2024-03-06T12:06:36;16.33;;;7.97;;
42364;SDS011;28498;54.400;18.566;2024-03-06T12:09:04;15.65;;;7.13;;
42364;SDS011;28498;54.400;18.566;2024-03-06T12:11:31;18.80;;;7.88;;
42364;SDS011;28498;54.400;18.566;2024-03-06T12:13:58;18.25;;;7.70;;
42364;SDS011;28498;54.400;18.566;2024-03-06T12:16:25;15.18;;;7.45;;
42364;SDS011;28498;54.400;18.566;2024-03-06T12:18:56;15.75;;;7.53;;
42364;SDS011;28498;54.400;18.566;2024-03-06T12:21:42;13.95;;;7.55;;
42364;SDS011;28498;54.400;18.566;2024-03-06T12:24:09;13.05;;;8.05;;
42364;SDS011;28498;54.400;18.566;2024-03-06T12:26:36;18.20;;;8.13;;
42364;SDS011;28498;54.400;18.566;2024-03-06T12:29:04;14.57;;;7.47;;
42364;SDS011;28498;54.400;18.566;2024-03-06T12:31:33;15.60;;;8.30;;
42364;SDS011;28498;54.400;18.566;2024-03-06T12:34:02;14.20;;;7.15;;
42364;SDS011;28498;54.400;18.566;2024-03-06T12:36:30;19.85;;;8.63;;
42364;SDS011;28498;54.400;18.566;2024-03-06T12:39:02;15.65;;;7.88;;
42364;SDS011;28498;54.400;18.566;2024-03-06T12:41:30;15.15;;;7.50;;
42364;SDS011;28498;54.400;18.566;2024-03-06T12:43:57;17.40;;;8.38;;
42364;SDS011;28498;54.400;18.566;2024-03-06T12:46:24;15.57;;;7.45;;
42364;SDS011;28498;54.400;18.566;2024-03-06T12:48:53;14.75;;;7.15;;
42364;SDS011;28498;54.400;18.566;2024-03-06T12:51:20;17.00;;;8.05;;
42364;SDS011;28498;54.400;18.566;2024-03-06T12:53:47;14.52;;;7.43;;
42364;SDS011;28498;54.400;18.566;2024-03-06T12:56:15;16.73;;;7.93;;
42364;SDS011;28498;54.400;18.566;2024-03-06T12:58:42;17.98;;;7.40;;
42364;SDS011;28498;54.400;18.566;2024-03-06T13:01:09;15.88;;;8.50;;
42364;SDS011;28498;54.400;18.566;2024-03-06T13:03:36;19.08;;;8.05;;
42364;SDS011;28498;54.400;18.566;2024-03-06T13:06:04;19.10;;;8.13;;
42364;SDS011;28498;54.400;18.566;2024-03-06T13:08:32;18.73;;;7.60;;
42364;SDS011;28498;54.400;18.566;2024-03-06T13:10:59;16.02;;;8.13;;
42364;SDS011;28498;54.400;18.566;2024-03-06T13:13:26;17.10;;;7.53;;
42364;SDS011;28498;54.400;18.566;2024-03-06T13:15:55;18.67;;;8.25;;
42364;SDS011;28498;54.400;18.566;2024-03-06T13:18:22;17.10;;;7.43;;
42364;SDS011;28498;54.400;18.566;2024-03-06T13:20:50;17.27;;;7.78;;
42364;SDS011;28498;54.400;18.566;2024-03-06T13:23:17;13.90;;;6.93;;
42364;SDS011;28498;54.400;18.566;2024-03-06T13:25:44;14.05;;;7.05;;
42364;SDS011;28498;54.400;18.566;2024-03-06T13:28:12;13.43;;;7.00;;
42364;SDS011;28498;54.400;18.566;2024-03-06T13:30:39;24.75;;;9.98;;
42364;SDS011;28498;54.400;18.566;2024-03-06T13:33:06;12.13;;;6.95;;
42364;SDS011;28498;54.400;18.566;2024-03-06T13:35:34;14.60;;;8.10;;
42364;SDS011;28498;54.400;18.566;2024-03-06T13:38:01;14.25;;;7.75;;
42364;SDS011;28498;54.400;18.566;2024-03-06T13:40:30;15.50;;;6.82;;
42364;SDS011;28498;54.400;18.566;2024-03-06T13:42:57;12.63;;;6.15;;
42364;SDS011;28498;54.400;18.566;2024-03-06T13:45:24;12.57;;;6.63;;
42364;SDS011;28498;54.400;18.566;2024-03-06T13:47:51;13.82;;;6.97;;
42364;SDS011;28498;54.400;18.566;2024-03-06T13:50:18;13.93;;;7.55;;
42364;SDS011;28498;54.400;18.566;2024-03-06T13:52:45;13.00;;;6.85;;
42364;SDS011;28498;54.400;18.566;2024-03-06T13:55:12;15.52;;;6.25;;
42364;SDS011;28498;54.400;18.566;2024-03-06T13:57:40;19.55;;;9.45;;
42364;SDS011;28498;54.400;18.566;2024-03-06T14:00:08;12.60;;;7.47;;
42364;SDS011;28498;54.400;18.566;2024-03-06T14:02:39;15.95;;;7.53;;
42364;SDS011;28498;54.400;18.566;2024-03-06T14:05:06;15.35;;;6.60;;
42364;SDS011;28498;54.400;18.566;2024-03-06T14:07:34;15.63;;;7.40;;
42364;SDS011;28498;54.400;18.566;2024-03-06T14:10:01;19.80;;;10.18;;
42364;SDS011;28498;54.400;18.566;2024-03-06T14:12:31;19.30;;;8.13;;
42364;SDS011;28498;54.400;18.566;2024-03-06T14:14:59;17.25;;;8.57;;
42364;SDS011;28498;54.400;18.566;2024-03-06T14:17:26;15.25;;;7.30;;
42364;SDS011;28498;54.400;18.566;2024-03-06T14:19:53;17.38;;;7.78;;
42364;SDS011;28498;54.400;18.566;2024-03-06T14:22:20;13.70;;;6.55;;
42364;SDS011;28498;54.400;18.566;2024-03-06T14:24:48;22.25;;;9.05;;
42364;SDS011;28498;54.400;18.566;2024-03-06T14:27:15;15.93;;;8.77;;
42364;SDS011;28498;54.400;18.566;2024-03-06T14:29:43;16.27;;;9.20;;
42364;SDS011;28498;54.400;18.566;2024-03-06T14:32:11;14.55;;;7.25;;
42364;SDS011;28498;54.400;18.566;2024-03-06T14:34:38;18.85;;;8.15;;
42364;SDS011;28498;54.400;18.566;2024-03-06T14:37:05;12.40;;;6.88;;
42364;SDS011;28498;54.400;18.566;2024-03-06T14:39:32;12.93;;;6.43;;